createdAt,value
2022-11-21T00:00:07.561Z,69.28
2022-11-21T00:02:53.602Z,69.29
2022-11-21T00:05:43.663Z,69.24
2022-11-21T00:08:30.635Z,69.17
2022-11-21T00:11:17.100Z,69.29
2022-11-21T00:14:03.440Z,69.09
2022-11-21T00:16:54.560Z,69.01
2022-11-21T00:19:43.037Z,68.92
2022-11-21T00:22:29.131Z,69.01
2022-11-21T00:25:15.484Z,68.57
2022-11-21T00:28:01.168Z,68.02
2022-11-21T00:30:46.910Z,67.64
2022-11-21T00:33:34.303Z,67.39
2022-11-21T00:36:20.507Z,67.62
2022-11-21T00:39:06.614Z,67.31
2022-11-21T00:41:52.367Z,67.39
2022-11-21T00:44:38.161Z,67.46
2022-11-21T00:47:23.899Z,67.71
2022-11-21T00:50:10.056Z,67.78
2022-11-21T00:52:57.404Z,67.48
2022-11-21T00:55:43.487Z,67.69
2022-11-21T00:58:29.162Z,67.40
2022-11-21T01:01:16.452Z,68.17
2022-11-21T01:04:03.531Z,67.59
2022-11-21T01:06:49.329Z,67.69
2022-11-21T01:09:35.665Z,68.14
2022-11-21T01:12:21.910Z,68.21
2022-11-21T01:15:08.664Z,68.44
2022-11-21T01:17:54.503Z,68.31
2022-11-21T01:20:40.648Z,68.07
2022-11-21T01:23:26.646Z,68.50
2022-11-21T01:26:15.211Z,67.82
2022-11-21T01:29:01.030Z,68.13
2022-11-21T01:31:46.992Z,67.97
2022-11-21T01:34:32.824Z,67.69
2022-11-21T01:37:18.807Z,68.00
2022-11-21T01:40:04.864Z,68.18
2022-11-21T01:42:55.770Z,67.63
2022-11-21T01:46:04.922Z,68.12
2022-11-21T01:48:54.210Z,67.72
2022-11-21T01:52:05.835Z,67.99
2022-11-21T01:54:55.889Z,67.93
2022-11-21T01:57:48.177Z,68.16
2022-11-21T02:00:38.171Z,68.07
2022-11-21T02:03:29.744Z,67.86
2022-11-21T02:06:15.700Z,67.94
2022-11-21T02:09:01.913Z,68.03
2022-11-21T02:12:29.537Z,67.81
2022-11-21T02:15:16.785Z,67.70
2022-11-21T02:18:02.818Z,67.51
2022-11-21T02:20:59.506Z,67.80
2022-11-21T02:24:12.809Z,67.58
2022-11-21T02:27:00.386Z,67.86
2022-11-21T02:29:46.180Z,67.88
2022-11-21T02:32:37.274Z,67.58
2022-11-21T02:35:23.710Z,67.61
2022-11-21T02:38:27.601Z,67.08
2022-11-21T02:41:17.475Z,67.07
2022-11-21T02:44:11.124Z,67.26
2022-11-21T02:46:58.019Z,67.70
2022-11-21T02:50:02.219Z,67.01
2022-11-21T02:52:48.352Z,67.07
2022-11-21T02:55:34.442Z,67.14
2022-11-21T02:58:26.171Z,67.42
2022-11-21T03:01:12.358Z,67.48
2022-11-21T03:03:58.201Z,67.75
2022-11-21T03:06:44.267Z,67.36
2022-11-21T03:09:29.977Z,66.40
2022-11-21T03:12:15.984Z,65.98
2022-11-21T03:15:01.982Z,66.84
2022-11-21T03:17:49.598Z,66.00
2022-11-21T03:20:35.975Z,65.80
2022-11-21T03:23:21.878Z,66.74
2022-11-21T03:26:07.608Z,66.54
2022-11-21T03:28:53.365Z,66.68
2022-11-21T03:31:39.058Z,66.55
2022-11-21T03:34:25.320Z,66.80
2022-11-21T03:37:11.239Z,66.56
2022-11-21T03:39:56.921Z,66.83
2022-11-21T03:42:42.842Z,66.74
2022-11-21T03:45:28.740Z,66.63
2022-11-21T03:48:20.373Z,67.17
2022-11-21T03:51:06.218Z,66.90
2022-11-21T03:53:55.388Z,67.11
2022-11-21T03:56:41.324Z,66.95
2022-11-21T03:59:27.060Z,67.20
2022-11-21T04:02:12.811Z,67.03
2022-11-21T04:04:58.482Z,67.17
2022-11-21T04:07:46.595Z,66.87
2022-11-21T04:10:33.598Z,66.88
2022-11-21T04:13:22.878Z,67.01
2022-11-21T04:16:12.315Z,66.86
2022-11-21T04:18:58.226Z,66.77
2022-11-21T04:21:44.589Z,66.71
2022-11-21T04:24:31.647Z,66.82
2022-11-21T04:27:17.599Z,66.64
2022-11-21T04:30:03.731Z,66.81
2022-11-21T04:32:53.774Z,66.93
2022-11-21T04:35:39.471Z,66.79
2022-11-21T04:38:25.437Z,66.66
2022-11-21T04:41:11.424Z,67.05
2022-11-21T04:43:59.512Z,66.62
2022-11-21T04:46:45.435Z,66.80
2022-11-21T04:49:31.152Z,66.75
2022-11-21T04:52:17.003Z,66.77
2022-11-21T04:55:03.890Z,66.61
2022-11-21T04:57:50.445Z,66.41
2022-11-21T05:00:36.362Z,66.43
2022-11-21T05:03:22.532Z,66.74
2022-11-21T05:06:08.921Z,66.54
2022-11-21T05:08:54.793Z,67.01
2022-11-21T05:11:59.443Z,66.72
2022-11-21T05:14:45.485Z,66.35
2022-11-21T05:17:31.352Z,66.56
2022-11-21T05:20:18.525Z,66.42
2022-11-21T05:23:04.483Z,66.53
2022-11-21T05:25:50.199Z,66.63
2022-11-21T05:28:35.954Z,66.83
2022-11-21T05:31:21.698Z,66.41
2022-11-21T05:34:07.492Z,66.80
2022-11-21T05:37:03.393Z,66.99
2022-11-21T05:39:49.438Z,66.84
2022-11-21T05:42:58.105Z,66.63
2022-11-21T05:45:45.185Z,66.92
2022-11-21T05:48:30.989Z,66.86
2022-11-21T05:51:17.595Z,66.79
2022-11-21T05:54:03.941Z,66.52
2022-11-21T05:56:49.813Z,66.40
2022-11-21T05:59:35.811Z,66.70
2022-11-21T06:02:41.879Z,66.83
2022-11-21T06:05:28.037Z,67.08
2022-11-21T06:08:14.075Z,66.41
2022-11-21T06:10:59.980Z,66.91
2022-11-21T06:13:46.130Z,66.60
2022-11-21T06:16:32.152Z,66.64
2022-11-21T06:19:17.910Z,66.80
2022-11-21T06:22:05.203Z,66.61
2022-11-21T06:24:51.373Z,66.38
2022-11-21T06:27:37.019Z,66.48
2022-11-21T06:30:22.736Z,66.80
2022-11-21T06:33:08.623Z,66.14
2022-11-21T06:35:54.725Z,66.16
2022-11-21T06:38:41.031Z,66.49
2022-11-21T06:41:30.315Z,66.30
2022-11-21T06:44:16.035Z,66.67
2022-11-21T06:47:01.779Z,66.51
2022-11-21T06:49:47.864Z,66.71
2022-11-21T06:52:34.538Z,66.78
2022-11-21T06:55:21.558Z,66.84
2022-11-21T06:58:07.592Z,66.79
2022-11-21T07:00:53.519Z,66.36
2022-11-21T07:03:39.806Z,66.38
2022-11-21T07:06:25.857Z,66.22
2022-11-21T07:09:32.077Z,66.01
2022-11-21T07:12:36.619Z,66.28
2022-11-21T07:15:22.760Z,65.68
2022-11-21T07:18:08.459Z,66.02
2022-11-21T07:21:01.416Z,65.53
2022-11-21T07:23:47.809Z,65.73
2022-11-21T07:26:33.912Z,65.76
2022-11-21T07:29:19.824Z,65.98
2022-11-21T07:32:05.521Z,66.09
2022-11-21T07:34:51.527Z,66.09
2022-11-21T07:37:39.616Z,65.96
2022-11-21T07:40:25.831Z,65.50
2022-11-21T07:43:11.820Z,65.33
2022-11-21T07:45:57.928Z,65.10
2022-11-21T07:48:44.109Z,65.07
2022-11-21T07:51:30.052Z,65.21
2022-11-21T07:54:16.290Z,65.42
2022-11-21T07:57:02.290Z,65.75
2022-11-21T07:59:48.061Z,65.56
2022-11-21T08:02:33.863Z,65.25
2022-11-21T08:05:19.975Z,65.95
2022-11-21T08:08:06.742Z,65.22
2022-11-21T08:10:52.819Z,65.53
2022-11-21T08:13:38.589Z,65.51
2022-11-21T08:16:28.151Z,65.28
2022-11-21T08:19:14.456Z,65.67
2022-11-21T08:22:01.629Z,65.03
2022-11-21T08:24:47.923Z,65.42
2022-11-21T08:27:33.911Z,65.67
2022-11-21T08:30:20.084Z,64.85
2022-11-21T08:33:06.785Z,64.79
2022-11-21T08:35:52.534Z,64.83
2022-11-21T08:38:38.479Z,64.59
2022-11-21T08:41:43.174Z,64.22
2022-11-21T08:44:30.823Z,64.95
2022-11-21T08:47:17.113Z,64.78
2022-11-21T08:50:08.640Z,64.74
2022-11-21T08:53:00.872Z,64.17
2022-11-21T08:55:46.868Z,64.88
2022-11-21T08:58:32.598Z,64.58
2022-11-21T09:01:18.663Z,64.47
2022-11-21T09:04:05.683Z,64.83
2022-11-21T09:06:51.629Z,64.74
2022-11-21T09:09:37.627Z,64.25
2022-11-21T09:12:23.357Z,64.75
2022-11-21T09:15:29.601Z,64.38
2022-11-21T09:18:15.763Z,64.05
2022-11-21T09:21:03.002Z,63.96
2022-11-21T09:23:50.989Z,64.10
2022-11-21T09:26:37.114Z,63.63
2022-11-21T09:29:22.999Z,63.58
2022-11-21T09:32:08.808Z,63.72
2022-11-21T09:34:54.420Z,63.39
2022-11-21T09:37:40.489Z,63.23
2022-11-21T09:40:26.990Z,63.14
2022-11-21T09:43:36.074Z,63.06
2022-11-21T09:46:23.448Z,63.48
2022-11-21T09:49:12.793Z,62.78
2022-11-21T09:52:00.599Z,62.75
2022-11-21T09:54:51.094Z,62.70
2022-11-21T09:57:37.355Z,62.93
2022-11-21T10:00:25.137Z,62.82
2022-11-21T10:03:13.309Z,62.33
2022-11-21T10:06:04.962Z,62.25
2022-11-21T10:09:15.217Z,62.05
2022-11-21T10:12:38.108Z,62.15
2022-11-21T10:15:35.598Z,61.81
2022-11-21T10:18:50.244Z,61.76
2022-11-21T10:22:04.932Z,61.35
2022-11-21T10:25:25.431Z,61.54
2022-11-21T10:28:58.610Z,61.69
2022-11-21T10:31:45.130Z,60.15
2022-11-21T10:34:36.021Z,61.04
2022-11-21T10:37:33.014Z,61.18
2022-11-21T10:40:29.185Z,61.09
2022-11-21T10:43:33.486Z,61.05
2022-11-21T10:46:19.590Z,61.27
2022-11-21T10:49:08.215Z,60.79
2022-11-21T10:52:04.533Z,60.45
2022-11-21T10:55:05.031Z,60.92
2022-11-21T10:57:52.025Z,60.92
2022-11-21T11:00:38.267Z,60.84
2022-11-21T11:03:25.757Z,60.82
2022-11-21T11:06:11.831Z,60.56
2022-11-21T11:08:58.121Z,60.57
2022-11-21T11:11:44.065Z,60.27
2022-11-21T11:14:33.123Z,60.73
2022-11-21T11:17:33.018Z,60.50
2022-11-21T11:20:41.125Z,60.24
2022-11-21T11:23:27.895Z,60.66
2022-11-21T11:26:28.876Z,60.84
2022-11-21T11:29:15.665Z,60.18
2022-11-21T11:32:04.622Z,60.08
2022-11-21T11:34:56.286Z,60.56
2022-11-21T11:37:43.349Z,60.48
2022-11-21T11:40:42.792Z,60.29
2022-11-21T11:43:59.277Z,59.81
2022-11-21T11:47:27.428Z,60.17
2022-11-21T11:50:19.477Z,60.44
2022-11-21T11:53:14.675Z,60.28
2022-11-21T11:56:09.366Z,60.46
2022-11-21T11:59:28.632Z,60.13
2022-11-21T12:02:22.373Z,59.92
2022-11-21T12:05:14.762Z,60.16
2022-11-21T12:11:54.980Z,59.93
2022-11-21T12:15:07.001Z,60.32
2022-11-21T12:17:58.923Z,59.94
2022-11-21T12:21:15.289Z,59.57
2022-11-21T12:24:04.250Z,60.03
2022-11-21T12:26:58.499Z,60.34
2022-11-21T12:30:05.066Z,59.93
2022-11-21T12:32:51.211Z,60.10
2022-11-21T12:35:42.861Z,60.30
2022-11-21T12:39:06.316Z,59.97
2022-11-21T12:42:23.488Z,60.07
2022-11-21T12:45:27.216Z,59.88
2022-11-21T12:48:54.121Z,60.00
2022-11-21T12:52:05.016Z,59.83
2022-11-21T12:55:11.674Z,59.85
2022-11-21T12:58:05.460Z,60.33
2022-11-21T13:01:06.946Z,60.50
2022-11-21T13:04:08.882Z,60.11
2022-11-21T13:06:55.897Z,60.58
2022-11-21T13:09:43.823Z,60.99
2022-11-21T13:12:54.210Z,60.91
2022-11-21T13:15:49.642Z,60.19
2022-11-21T13:18:48.224Z,60.34
2022-11-21T13:21:49.824Z,60.53
2022-11-21T13:24:44.934Z,60.56
2022-11-21T13:27:39.202Z,60.70
2022-11-21T13:30:25.824Z,60.65
2022-11-21T13:33:37.510Z,60.53
2022-11-21T13:36:29.454Z,60.90
2022-11-21T13:39:15.217Z,61.14
2022-11-21T13:42:26.576Z,60.86
2022-11-21T13:45:43.874Z,61.17
2022-11-21T13:49:02.400Z,60.88
2022-11-21T13:51:52.800Z,61.54
2022-11-21T13:55:04.627Z,61.05
2022-11-21T13:57:59.206Z,61.16
2022-11-21T14:01:03.909Z,61.58
2022-11-21T14:04:27.715Z,61.28
2022-11-21T14:07:34.424Z,61.28
2022-11-21T14:10:20.441Z,61.31
2022-11-21T14:13:06.274Z,60.96
2022-11-21T14:16:47.147Z,60.99
2022-11-21T14:19:34.806Z,61.47
2022-11-21T14:22:48.696Z,61.58
2022-11-21T14:25:42.208Z,61.87
2022-11-21T14:28:30.868Z,61.67
2022-11-21T14:31:17.105Z,61.76
2022-11-21T14:34:03.254Z,61.66
2022-11-21T14:36:49.625Z,61.47
2022-11-21T14:39:44.143Z,61.25
2022-11-21T14:42:37.113Z,61.50
2022-11-21T14:45:24.327Z,61.85
2022-11-21T14:48:12.913Z,61.80
2022-11-21T14:51:00.054Z,61.92
2022-11-21T14:53:48.030Z,61.92
2022-11-21T14:56:34.888Z,62.01
2022-11-21T14:59:33.011Z,62.11
2022-11-21T15:02:27.736Z,62.03
2022-11-21T15:05:24.841Z,61.79
2022-11-21T15:08:53.739Z,62.13
2022-11-21T15:12:01.571Z,61.74
2022-11-21T15:14:54.975Z,61.71
2022-11-21T15:17:57.513Z,62.31
2022-11-21T15:20:49.907Z,62.74
2022-11-21T15:23:40.116Z,62.33
2022-11-21T15:26:30.418Z,62.17
2022-11-21T15:29:21.251Z,61.75
2022-11-21T15:32:15.666Z,62.37
2022-11-21T15:35:31.978Z,62.01
2022-11-21T15:38:28.352Z,61.91
2022-11-21T15:41:14.663Z,61.75
2022-11-21T15:44:00.770Z,62.56
2022-11-21T15:46:47.224Z,62.48
2022-11-21T15:49:33.720Z,62.44
2022-11-21T15:52:20.060Z,62.55
2022-11-21T15:55:12.911Z,62.25
2022-11-21T15:57:58.969Z,62.73
2022-11-21T16:00:44.853Z,62.55
2022-11-21T16:03:30.997Z,62.82
2022-11-21T16:06:17.383Z,62.15
2022-11-21T16:09:04.064Z,62.43
2022-11-21T16:11:49.969Z,62.41
2022-11-21T16:14:35.852Z,62.76
2022-11-21T16:17:21.884Z,62.12
2022-11-21T16:20:08.816Z,62.33
2022-11-21T16:22:58.021Z,62.22
2022-11-21T16:25:54.145Z,63.04
2022-11-21T16:28:40.073Z,62.31
2022-11-21T16:31:30.833Z,62.65
2022-11-21T16:34:20.375Z,62.37
2022-11-21T16:37:07.757Z,62.67
2022-11-21T16:39:53.672Z,62.36
2022-11-21T16:42:39.539Z,62.55
2022-11-21T16:45:25.750Z,62.80
2022-11-21T16:48:11.745Z,62.58
2022-11-21T16:51:12.697Z,62.27
2022-11-21T16:54:01.745Z,62.32
2022-11-21T16:56:51.944Z,62.78
2022-11-21T16:59:37.979Z,62.51
2022-11-21T17:02:25.063Z,62.14
2022-11-21T17:05:11.144Z,62.62
2022-11-21T17:07:57.502Z,62.74
2022-11-21T17:10:43.224Z,62.58
2022-11-21T17:13:29.465Z,62.50
2022-11-21T17:16:17.467Z,62.53
2022-11-21T17:19:04.403Z,62.88
2022-11-21T17:21:52.638Z,62.59
2022-11-21T17:24:38.303Z,62.90
2022-11-21T17:27:24.340Z,62.43
2022-11-21T17:30:10.921Z,63.06
2022-11-21T17:32:57.050Z,62.69
2022-11-21T17:35:44.276Z,62.75
2022-11-21T17:38:30.363Z,62.70
2022-11-21T17:41:17.994Z,62.42
2022-11-21T17:44:04.105Z,63.12
2022-11-21T17:46:50.090Z,62.82
2022-11-21T17:49:37.162Z,62.51
2022-11-21T17:52:23.110Z,62.84
2022-11-21T17:55:09.011Z,62.54
2022-11-21T17:57:55.192Z,62.72
2022-11-21T18:00:41.171Z,62.80
2022-11-21T18:03:27.364Z,63.14
2022-11-21T18:06:15.160Z,62.67
2022-11-21T18:09:01.396Z,62.46
2022-11-21T18:11:47.578Z,62.96
2022-11-21T18:14:35.063Z,63.02
2022-11-21T18:17:20.918Z,62.72
2022-11-21T18:20:07.517Z,63.31
2022-11-21T18:22:53.693Z,62.92
2022-11-21T18:25:39.832Z,63.30
2022-11-21T18:28:25.807Z,63.23
2022-11-21T18:31:14.212Z,63.05
2022-11-21T18:34:02.459Z,63.25
2022-11-21T18:36:48.797Z,63.21
2022-11-21T18:39:34.972Z,63.40
2022-11-21T18:42:21.287Z,63.28
2022-11-21T18:45:07.638Z,63.18
2022-11-21T18:47:53.793Z,62.65
2022-11-21T18:50:40.106Z,62.86
2022-11-21T18:53:26.218Z,62.47
2022-11-21T18:56:14.184Z,62.89
2022-11-21T18:58:59.980Z,63.07
2022-11-21T19:01:46.285Z,62.92
2022-11-21T19:04:32.520Z,63.10
2022-11-21T19:07:18.469Z,62.90
2022-11-21T19:10:35.517Z,63.04
2022-11-21T19:13:12.552Z,62.79
2022-11-21T19:16:01.726Z,62.53
2022-11-21T19:19:05.459Z,63.03
2022-11-21T19:21:55.895Z,62.90
2022-11-21T19:24:41.693Z,63.20
2022-11-21T19:27:27.611Z,62.82
2022-11-21T19:30:13.847Z,63.17
2022-11-21T19:32:59.941Z,63.15
2022-11-21T19:35:45.688Z,63.18
2022-11-21T19:38:31.778Z,63.14
2022-11-21T19:41:25.353Z,62.81
2022-11-21T19:44:11.726Z,63.50
2022-11-21T19:46:57.934Z,63.24
2022-11-21T19:49:43.939Z,62.91
2022-11-21T19:52:29.849Z,63.09
2022-11-21T19:55:15.939Z,62.81
2022-11-21T19:58:01.963Z,63.30
2022-11-21T20:00:47.924Z,63.40
2022-11-21T20:03:34.860Z,62.63
2022-11-21T20:06:26.604Z,63.01
2022-11-21T20:09:15.753Z,62.81
2022-11-21T20:12:02.312Z,62.70
2022-11-21T20:14:48.540Z,62.86
2022-11-21T20:17:34.192Z,63.01
2022-11-21T20:20:20.043Z,63.45
2022-11-21T20:23:06.265Z,62.93
2022-11-21T20:25:52.127Z,63.25
2022-11-21T20:28:38.220Z,63.01
2022-11-21T20:31:27.269Z,63.54
2022-11-21T20:34:13.997Z,63.34
2022-11-21T20:37:00.810Z,63.60
2022-11-21T20:39:47.451Z,62.93
2022-11-21T20:42:34.494Z,63.18
2022-11-21T20:48:26.344Z,63.02
2022-11-21T20:54:20.338Z,63.83
2022-11-21T20:57:10.416Z,63.17
2022-11-21T21:00:00.514Z,63.30
2022-11-21T21:02:46.539Z,63.55
2022-11-21T21:05:33.662Z,63.30
2022-11-21T21:08:19.473Z,63.22
2022-11-21T21:11:30.525Z,63.55
2022-11-21T21:14:18.196Z,63.44
2022-11-21T21:17:03.969Z,63.03
2022-11-21T21:19:49.840Z,63.25
2022-11-21T21:22:36.226Z,63.18
2022-11-21T21:25:22.271Z,63.18
2022-11-21T21:28:08.471Z,63.72
2022-11-21T21:30:54.439Z,63.15
2022-11-21T21:33:40.905Z,63.67
2022-11-21T21:36:27.534Z,63.32
2022-11-21T21:39:13.476Z,63.59
2022-11-21T21:41:59.320Z,63.28
2022-11-21T21:44:44.968Z,63.18
2022-11-21T21:47:30.702Z,63.42
2022-11-21T21:50:16.478Z,63.32
2022-11-21T21:53:03.193Z,63.67
2022-11-21T21:55:48.946Z,63.68
2022-11-21T21:58:36.858Z,63.70
2022-11-21T22:01:31.769Z,63.25
2022-11-21T22:04:17.794Z,63.58
2022-11-21T22:07:05.791Z,63.37
2022-11-21T22:09:52.068Z,63.30
2022-11-21T22:12:41.187Z,63.41
2022-11-21T22:15:29.769Z,63.82
2022-11-21T22:18:15.570Z,63.40
2022-11-21T22:21:01.431Z,63.89
2022-11-21T22:24:09.754Z,63.75
2022-11-21T22:26:53.590Z,63.64
2022-11-21T22:29:39.502Z,63.62
2022-11-21T22:32:25.282Z,63.60
2022-11-21T22:35:11.425Z,63.83
2022-11-21T22:37:57.133Z,63.92
2022-11-21T22:40:43.681Z,64.17
2022-11-21T22:43:30.123Z,64.14
2022-11-21T22:46:16.354Z,63.84
2022-11-21T22:49:02.275Z,64.66
2022-11-21T22:51:48.098Z,63.38
2022-11-21T22:54:33.895Z,64.06
2022-11-21T22:57:20.173Z,64.60
2022-11-21T23:00:08.404Z,63.84
2022-11-21T23:02:54.447Z,63.95
2022-11-21T23:05:40.321Z,63.25
2022-11-21T23:08:26.691Z,63.56
2022-11-21T23:11:24.620Z,63.87
2022-11-21T23:14:10.451Z,63.92
2022-11-21T23:16:56.216Z,63.66
2022-11-21T23:19:42.320Z,64.13
2022-11-21T23:22:28.228Z,64.36
2022-11-21T23:25:14.708Z,63.91
2022-11-21T23:28:00.532Z,63.89
2022-11-21T23:30:47.374Z,64.04
2022-11-21T23:33:33.306Z,63.98
2022-11-21T23:36:19.104Z,63.92
2022-11-21T23:39:05.137Z,64.19
2022-11-21T23:41:51.057Z,63.66
2022-11-21T23:44:36.605Z,64.11
2022-11-21T23:47:22.460Z,64.18
2022-11-21T23:50:08.550Z,64.61
2022-11-21T23:52:54.301Z,64.33
2022-11-21T23:55:40.154Z,64.12
2022-11-21T23:58:25.914Z,64.70
